createdAt,value
2023-05-10T00:02:56.327Z,4.50
2023-05-10T00:05:24.348Z,4.50
2023-05-10T00:07:52.219Z,3.75
2023-05-10T00:10:20.228Z,4.00
2023-05-10T00:12:49.541Z,5.25
2023-05-10T00:15:17.693Z,4.50
2023-05-10T00:17:46.293Z,4.50
2023-05-10T00:20:14.542Z,4.50
2023-05-10T00:22:42.540Z,4.00
2023-05-10T00:25:11.360Z,4.50
2023-05-10T00:27:39.250Z,4.25
2023-05-10T00:30:11.313Z,4.00
2023-05-10T00:32:39.193Z,3.50
2023-05-10T00:35:07.773Z,4.00
2023-05-10T00:37:35.703Z,4.00
2023-05-10T00:40:04.535Z,3.00
2023-05-10T00:42:32.465Z,3.50
2023-05-10T00:45:00.532Z,4.25
2023-05-10T00:47:29.890Z,3.50
2023-05-10T00:49:58.149Z,4.00
2023-05-10T00:52:26.989Z,3.50
2023-05-10T00:54:54.955Z,4.25
2023-05-10T00:57:23.194Z,3.50
2023-05-10T00:59:51.485Z,3.50
2023-05-10T01:02:19.499Z,2.75
2023-05-10T01:04:48.836Z,3.50
2023-05-10T01:07:16.769Z,3.50
2023-05-10T01:09:45.167Z,3.50
2023-05-10T01:12:13.384Z,3.50
2023-05-10T01:14:41.387Z,3.50
2023-05-10T01:17:10.347Z,3.50
2023-05-10T01:19:39.077Z,3.25
2023-05-10T01:22:15.294Z,3.25
2023-05-10T01:25:12.797Z,3.00
2023-05-10T01:28:00.708Z,3.75
2023-05-10T01:30:53.276Z,3.75
2023-05-10T01:33:24.040Z,2.75
2023-05-10T01:35:54.854Z,3.25
2023-05-10T01:38:27.900Z,3.25
2023-05-10T01:41:04.195Z,2.50
2023-05-10T01:43:34.974Z,3.00
2023-05-10T01:46:11.719Z,2.50
2023-05-10T01:48:44.639Z,3.25
2023-05-10T01:51:12.539Z,3.50
2023-05-10T01:53:40.705Z,2.50
2023-05-10T01:56:08.982Z,2.50
2023-05-10T01:58:37.324Z,2.25
2023-05-10T02:01:05.837Z,1.75
2023-05-10T02:03:33.871Z,2.50
2023-05-10T02:06:03.456Z,2.00
2023-05-10T02:08:31.824Z,2.50
2023-05-10T02:10:59.742Z,2.00
2023-05-10T02:13:28.224Z,1.50
2023-05-10T02:15:56.181Z,2.50
2023-05-10T02:18:24.408Z,2.50
2023-05-10T02:20:52.302Z,2.50
2023-05-10T02:23:22.002Z,2.50
2023-05-10T02:25:50.172Z,3.50
2023-05-10T02:28:18.345Z,2.50
2023-05-10T02:30:46.241Z,2.50
2023-05-10T02:33:14.268Z,1.50
2023-05-10T02:38:17.646Z,1.50
2023-05-10T02:40:47.137Z,1.50
2023-05-10T02:43:16.231Z,2.50
2023-05-10T02:45:44.530Z,3.00
2023-05-10T02:48:12.520Z,1.50
2023-05-10T02:50:40.523Z,2.50
2023-05-10T02:53:11.775Z,2.50
2023-05-10T02:55:41.104Z,1.50
2023-05-10T02:58:11.211Z,2.25
2023-05-10T03:00:39.291Z,2.00
2023-05-10T03:03:07.763Z,1.50
2023-05-10T03:05:36.003Z,1.50
2023-05-10T03:08:05.175Z,1.50
2023-05-10T03:10:33.218Z,2.25
2023-05-10T03:13:08.662Z,1.50
2023-05-10T03:15:42.191Z,1.50
2023-05-10T03:18:11.876Z,1.50
2023-05-10T03:20:43.690Z,0.75
2023-05-10T03:23:14.332Z,1.50
2023-05-10T03:25:44.655Z,1.50
2023-05-10T03:28:12.576Z,1.50
2023-05-10T03:30:42.059Z,1.50
2023-05-10T03:33:10.011Z,1.50
2023-05-10T03:35:38.341Z,1.50
2023-05-10T03:38:06.578Z,1.50
2023-05-10T03:40:34.754Z,1.75
2023-05-10T03:43:02.779Z,0.50
2023-05-10T03:45:31.745Z,0.50
2023-05-10T03:48:01.335Z,1.75
2023-05-10T03:50:29.428Z,1.25
2023-05-10T03:52:58.265Z,1.50
2023-05-10T03:55:26.436Z,2.00
2023-05-10T03:57:54.927Z,1.50
2023-05-10T04:03:09.507Z,2.00
2023-05-10T04:05:37.440Z,1.00
2023-05-10T04:08:05.417Z,1.00
2023-05-10T04:10:33.383Z,1.25
2023-05-10T04:13:01.685Z,1.50
2023-05-10T04:15:29.863Z,1.25
2023-05-10T04:17:57.789Z,1.00
2023-05-10T04:20:27.358Z,0.50
2023-05-10T04:22:55.229Z,1.25
2023-05-10T04:25:23.309Z,0.50
2023-05-10T04:27:51.459Z,1.50
2023-05-10T04:30:19.816Z,1.50
2023-05-10T04:32:47.749Z,3.50
2023-05-10T04:35:15.868Z,3.25
2023-05-10T04:37:45.235Z,3.50
2023-05-10T04:40:14.347Z,4.50
2023-05-10T04:42:43.574Z,4.00
2023-05-10T04:45:12.478Z,4.00
2023-05-10T04:47:40.481Z,4.00
2023-05-10T04:50:09.703Z,3.75
2023-05-10T04:52:37.586Z,3.50
2023-05-10T04:55:08.937Z,4.50
2023-05-10T04:57:36.814Z,4.50
2023-05-10T05:00:06.413Z,4.50
2023-05-10T05:02:35.604Z,5.50
2023-05-10T05:05:03.794Z,4.75
2023-05-10T05:07:32.270Z,5.25
2023-05-10T05:10:00.348Z,4.75
2023-05-10T05:12:29.602Z,4.25
2023-05-10T05:14:57.728Z,5.50
2023-05-10T05:17:25.779Z,5.00
2023-05-10T05:19:54.105Z,5.25
2023-05-10T05:22:28.283Z,5.00
2023-05-10T05:24:56.374Z,5.50
2023-05-10T05:27:25.330Z,5.00
2023-05-10T05:29:56.174Z,4.50
2023-05-10T05:32:24.300Z,5.50
2023-05-10T05:34:52.915Z,5.75
2023-05-10T05:37:22.293Z,5.50
2023-05-10T05:39:50.724Z,5.00
2023-05-10T05:42:19.916Z,5.50
2023-05-10T05:44:47.875Z,4.50
2023-05-10T05:47:17.225Z,5.25
2023-05-10T05:49:46.796Z,4.50
2023-05-10T05:52:14.789Z,5.25
2023-05-10T05:54:42.668Z,5.00
2023-05-10T05:57:10.565Z,3.75
2023-05-10T05:59:42.892Z,5.00
2023-05-10T06:02:11.142Z,4.50
2023-05-10T06:04:42.700Z,4.50
2023-05-10T06:07:12.480Z,4.75
2023-05-10T06:09:40.657Z,4.75
2023-05-10T06:12:08.748Z,4.00
2023-05-10T06:14:36.908Z,4.25
2023-05-10T06:17:06.217Z,3.50
2023-05-10T06:19:35.366Z,5.25
2023-05-10T06:22:07.274Z,4.50
2023-05-10T06:24:35.470Z,3.25
2023-05-10T06:27:03.668Z,3.75
2023-05-10T06:29:33.293Z,4.50
2023-05-10T06:32:01.529Z,4.50
2023-05-10T06:34:30.006Z,3.50
2023-05-10T06:36:58.278Z,4.25
2023-05-10T06:39:28.157Z,4.50
2023-05-10T06:41:56.691Z,4.50
2023-05-10T06:44:25.050Z,3.25
2023-05-10T06:46:54.533Z,3.75
2023-05-10T06:49:23.278Z,4.50
2023-05-10T06:51:51.607Z,4.50
2023-05-10T06:54:19.724Z,4.25
2023-05-10T06:56:49.776Z,4.00
2023-05-10T06:59:18.313Z,4.00
2023-05-10T07:01:46.913Z,3.50
2023-05-10T07:04:15.282Z,2.75
2023-05-10T07:06:43.603Z,3.50
2023-05-10T07:09:12.124Z,3.50
2023-05-10T07:11:40.253Z,3.25
2023-05-10T07:14:09.917Z,3.50
2023-05-10T07:16:38.323Z,4.00
2023-05-10T07:19:07.540Z,3.75
2023-05-10T07:21:36.342Z,3.75
2023-05-10T07:24:04.629Z,3.50
2023-05-10T07:26:32.688Z,3.00
2023-05-10T07:29:01.231Z,3.50
2023-05-10T07:31:32.886Z,3.50
2023-05-10T07:34:01.164Z,3.50
2023-05-10T07:36:29.966Z,3.50
2023-05-10T07:38:58.864Z,4.00
2023-05-10T07:41:27.167Z,3.25
2023-05-10T07:43:55.272Z,4.00
2023-05-10T07:46:23.674Z,3.25
2023-05-10T07:48:53.765Z,3.00
2023-05-10T07:51:22.129Z,3.25
2023-05-10T07:53:50.250Z,3.50
2023-05-10T07:56:26.275Z,3.50
2023-05-10T07:58:54.371Z,3.50
2023-05-10T08:01:22.298Z,4.00
2023-05-10T08:03:51.727Z,3.50
2023-05-10T08:06:21.377Z,2.50
2023-05-10T08:08:51.272Z,4.50
2023-05-10T08:11:19.507Z,3.75
2023-05-10T08:13:47.496Z,3.50
2023-05-10T08:16:15.511Z,3.00
2023-05-10T08:18:43.831Z,3.50
2023-05-10T08:21:12.339Z,3.50
2023-05-10T08:23:41.678Z,3.25
2023-05-10T08:26:09.901Z,2.50
2023-05-10T08:28:37.799Z,2.50
2023-05-10T08:31:06.671Z,2.75
2023-05-10T08:33:35.105Z,3.50
2023-05-10T08:36:03.005Z,3.50
2023-05-10T08:38:30.891Z,3.50
2023-05-10T08:41:00.540Z,3.50
2023-05-10T08:43:29.543Z,3.00
2023-05-10T08:45:58.107Z,3.50
2023-05-10T08:48:27.010Z,3.25
2023-05-10T08:50:55.510Z,3.50
2023-05-10T08:53:23.499Z,2.50
2023-05-10T08:55:51.385Z,3.75
2023-05-10T08:58:21.343Z,3.50
2023-05-10T09:00:52.474Z,3.25
2023-05-10T09:03:20.505Z,3.50
2023-05-10T09:05:48.499Z,3.50
2023-05-10T09:08:17.629Z,3.50
2023-05-10T09:10:45.624Z,3.50
2023-05-10T09:13:13.605Z,3.50
2023-05-10T09:15:43.950Z,3.50
2023-05-10T09:18:12.503Z,3.75
2023-05-10T09:20:41.209Z,3.50
2023-05-10T09:23:09.225Z,4.50
2023-05-10T09:25:38.142Z,3.50
2023-05-10T09:28:08.571Z,4.50
2023-05-10T09:30:36.550Z,4.25
2023-05-10T09:33:05.970Z,3.50
2023-05-10T09:35:34.982Z,4.00
2023-05-10T09:38:05.147Z,3.50
2023-05-10T09:40:33.155Z,3.50
2023-05-10T09:43:02.360Z,3.75
2023-05-10T09:45:31.131Z,3.75
2023-05-10T09:47:59.612Z,4.50
2023-05-10T09:50:29.258Z,4.50
2023-05-10T09:52:59.995Z,4.50
2023-05-10T09:55:29.268Z,3.50
2023-05-10T09:58:01.762Z,4.50
2023-05-10T10:00:29.819Z,3.50
2023-05-10T10:02:58.567Z,3.75
2023-05-10T10:05:31.781Z,4.50
2023-05-10T10:07:59.770Z,4.75
2023-05-10T10:10:27.721Z,4.50
2023-05-10T10:12:56.059Z,3.50
2023-05-10T10:15:24.112Z,4.50
2023-05-10T10:17:52.610Z,4.50
2023-05-10T10:20:21.572Z,4.75
2023-05-10T10:22:51.395Z,4.50
2023-05-10T10:25:19.972Z,4.25
2023-05-10T10:27:51.138Z,4.50
2023-05-10T10:30:24.210Z,4.50
2023-05-10T10:33:10.215Z,6.25
2023-05-10T10:35:45.244Z,5.50
2023-05-10T10:38:14.719Z,3.75
2023-05-10T10:40:42.606Z,3.75
2023-05-10T10:43:26.474Z,3.50
2023-05-10T10:46:16.195Z,4.00
2023-05-10T10:48:44.496Z,4.75
2023-05-10T10:51:13.027Z,4.50
2023-05-10T10:53:42.698Z,4.50
2023-05-10T10:56:12.694Z,3.00
2023-05-10T10:58:40.746Z,3.50
2023-05-10T11:01:15.256Z,4.50
2023-05-10T11:03:43.408Z,3.50
2023-05-10T11:06:11.655Z,4.25
2023-05-10T11:08:46.076Z,3.75
2023-05-10T11:11:16.297Z,4.00
2023-05-10T11:13:45.158Z,4.00
2023-05-10T11:16:17.911Z,5.50
2023-05-10T11:19:00.064Z,4.50
2023-05-10T11:21:28.127Z,6.00
2023-05-10T11:23:58.441Z,4.50
2023-05-10T11:26:27.335Z,5.00
2023-05-10T11:28:57.254Z,4.50
2023-05-10T11:31:27.617Z,4.25
2023-05-10T11:33:56.548Z,3.50
2023-05-10T11:36:26.392Z,3.50
2023-05-10T11:38:54.706Z,4.50
2023-05-10T11:41:24.481Z,3.50
2023-05-10T11:43:52.862Z,3.00
2023-05-10T11:46:22.655Z,2.50
2023-05-10T11:48:52.222Z,3.50
2023-05-10T11:51:22.403Z,4.50
2023-05-10T11:53:51.026Z,4.00
2023-05-10T11:56:19.024Z,3.50
2023-05-10T11:58:54.360Z,4.00
2023-05-10T12:01:22.924Z,3.75
2023-05-10T12:03:51.242Z,3.50
2023-05-10T12:06:19.638Z,3.50
2023-05-10T12:08:48.192Z,3.75
2023-05-10T12:11:16.446Z,4.50
2023-05-10T12:13:47.491Z,4.00
2023-05-10T12:16:17.728Z,3.50
2023-05-10T12:18:46.226Z,4.25
2023-05-10T12:21:14.504Z,4.25
2023-05-10T12:23:42.684Z,3.50
2023-05-10T12:26:11.366Z,3.50
2023-05-10T12:28:40.151Z,4.25
2023-05-10T12:31:08.077Z,4.25
2023-05-10T12:33:43.497Z,3.75
2023-05-10T12:36:11.586Z,3.50
2023-05-10T12:38:40.472Z,3.50
2023-05-10T12:41:09.468Z,3.50
2023-05-10T12:44:20.555Z,3.50
2023-05-10T12:46:48.681Z,3.75
2023-05-10T12:49:19.909Z,3.50
2023-05-10T12:51:47.923Z,4.25
2023-05-10T12:54:16.338Z,3.50
2023-05-10T12:56:45.185Z,3.50
2023-05-10T12:59:13.154Z,3.75
2023-05-10T13:01:41.265Z,3.75
2023-05-10T13:04:09.727Z,3.25
2023-05-10T13:06:39.069Z,3.50
2023-05-10T13:09:06.981Z,4.00
2023-05-10T13:11:34.922Z,3.00
2023-05-10T13:14:04.228Z,2.75
2023-05-10T13:16:32.608Z,4.00
2023-05-10T13:19:00.608Z,3.50
2023-05-10T13:21:28.960Z,4.25
2023-05-10T13:23:58.895Z,3.50
2023-05-10T13:26:31.724Z,4.00
2023-05-10T13:29:01.997Z,3.50
2023-05-10T13:31:30.117Z,3.50
2023-05-10T13:33:58.664Z,3.25
2023-05-10T13:36:26.838Z,4.25
2023-05-10T13:38:54.824Z,5.25
2023-05-10T13:41:24.293Z,3.50
2023-05-10T13:43:55.185Z,4.00
2023-05-10T13:46:23.206Z,3.50
2023-05-10T13:48:51.245Z,3.50
2023-05-10T13:51:19.220Z,3.75
2023-05-10T13:53:49.143Z,3.75
2023-05-10T13:56:17.143Z,3.50
2023-05-10T13:58:46.759Z,3.50
2023-05-10T14:04:58.931Z,4.25
2023-05-10T14:07:27.027Z,4.25
2023-05-10T14:09:58.668Z,3.50
2023-05-10T14:12:29.543Z,4.25
2023-05-10T14:14:59.153Z,3.50
2023-05-10T14:17:31.221Z,3.75
2023-05-10T14:19:59.592Z,3.50
2023-05-10T14:22:27.492Z,4.25
2023-05-10T14:24:56.338Z,4.50
2023-05-10T14:27:24.593Z,4.50
2023-05-10T14:29:54.318Z,3.75
2023-05-10T14:32:23.611Z,3.50
2023-05-10T14:34:51.502Z,4.25
2023-05-10T14:37:19.411Z,4.50
2023-05-10T14:39:47.757Z,4.25
2023-05-10T14:42:15.715Z,4.25
2023-05-10T14:44:43.730Z,3.25
2023-05-10T14:47:12.449Z,3.25
2023-05-10T14:49:41.828Z,3.50
2023-05-10T14:52:09.722Z,3.50
2023-05-10T14:54:37.642Z,3.75
2023-05-10T14:57:05.563Z,3.50
2023-05-10T14:59:33.524Z,2.50
2023-05-10T15:02:01.874Z,3.00
2023-05-10T15:04:30.448Z,3.25
2023-05-10T15:07:01.557Z,2.50
2023-05-10T15:09:29.582Z,3.50
2023-05-10T15:11:57.587Z,3.50
2023-05-10T15:14:25.640Z,3.25
2023-05-10T15:16:53.903Z,3.00
2023-05-10T15:19:22.469Z,2.50
2023-05-10T15:21:53.235Z,3.50
2023-05-10T15:24:23.057Z,3.25
2023-05-10T15:26:51.022Z,2.75
2023-05-10T15:29:23.495Z,2.50
2023-05-10T15:31:51.808Z,2.75
2023-05-10T15:34:22.387Z,3.50
2023-05-10T15:36:50.310Z,2.50
2023-05-10T15:39:18.205Z,2.25
2023-05-10T15:41:48.068Z,2.50
2023-05-10T15:44:16.476Z,2.75
2023-05-10T15:46:44.440Z,2.50
2023-05-10T15:49:12.397Z,3.50
2023-05-10T15:51:40.340Z,2.50
2023-05-10T15:54:08.667Z,2.25
2023-05-10T15:56:36.806Z,2.50
2023-05-10T15:59:08.596Z,2.50
2023-05-10T16:01:36.536Z,3.00
2023-05-10T16:04:04.810Z,2.50
2023-05-10T16:06:32.796Z,2.50
2023-05-10T16:09:00.737Z,3.25
2023-05-10T16:11:28.832Z,2.00
2023-05-10T16:13:57.032Z,2.50
2023-05-10T16:16:26.335Z,2.50
2023-05-10T16:18:54.346Z,2.50
2023-05-10T16:21:22.359Z,3.50
2023-05-10T16:23:50.573Z,2.25
2023-05-10T16:26:18.461Z,2.25
2023-05-10T16:28:46.346Z,2.25
2023-05-10T16:31:14.300Z,2.50
2023-05-10T16:33:44.110Z,2.00
2023-05-10T16:36:12.984Z,2.50
2023-05-10T16:38:41.718Z,2.50
2023-05-10T16:41:09.704Z,2.25
2023-05-10T16:43:37.947Z,2.50
2023-05-10T16:46:11.315Z,2.25
2023-05-10T16:48:39.409Z,2.50
2023-05-10T16:51:09.175Z,1.50
2023-05-10T16:53:37.780Z,2.00
2023-05-10T16:56:06.257Z,1.75
2023-05-10T16:58:34.720Z,2.50
2023-05-10T17:01:02.833Z,1.50
2023-05-10T17:03:31.146Z,1.75
2023-05-10T17:05:59.302Z,2.25
2023-05-10T17:08:28.555Z,2.50
2023-05-10T17:10:56.920Z,1.50
2023-05-10T17:13:24.833Z,1.50
2023-05-10T17:15:52.895Z,2.25
2023-05-10T17:18:21.181Z,1.50
2023-05-10T17:20:49.248Z,1.50
2023-05-10T17:23:17.469Z,2.25
2023-05-10T17:25:47.046Z,2.25
2023-05-10T17:28:14.918Z,2.25
2023-05-10T17:30:42.863Z,2.50
2023-05-10T17:33:11.316Z,2.50
2023-05-10T17:35:39.287Z,3.00
2023-05-10T17:38:07.265Z,2.50
2023-05-10T17:40:35.364Z,3.50
2023-05-10T17:43:05.195Z,2.25
2023-05-10T17:45:33.144Z,2.00
2023-05-10T17:48:01.108Z,2.25
2023-05-10T17:50:29.042Z,3.00
2023-05-10T17:52:57.392Z,1.50
2023-05-10T17:55:27.146Z,2.25
2023-05-10T17:57:58.571Z,2.00
2023-05-10T18:03:03.843Z,2.00
2023-05-10T18:05:31.950Z,1.50
2023-05-10T18:07:59.984Z,1.50
2023-05-10T18:10:28.103Z,2.25
2023-05-10T18:12:56.399Z,2.00
2023-05-10T18:15:24.621Z,1.50
2023-05-10T18:17:52.746Z,1.50
2023-05-10T18:20:22.491Z,1.50
2023-05-10T18:22:50.366Z,2.25
2023-05-10T18:25:18.529Z,2.50
2023-05-10T18:27:47.562Z,2.25
2023-05-10T18:30:16.235Z,2.50
2023-05-10T18:32:44.354Z,2.25
2023-05-10T18:35:12.379Z,2.00
2023-05-10T18:37:41.655Z,1.50
2023-05-10T18:40:12.585Z,2.50
2023-05-10T18:42:40.508Z,2.50
2023-05-10T18:45:10.213Z,2.50
2023-05-10T18:47:38.176Z,2.00
2023-05-10T18:50:07.692Z,1.50
2023-05-10T18:52:36.794Z,2.50
2023-05-10T18:55:07.112Z,1.50
2023-05-10T18:57:41.339Z,1.50
2023-05-10T19:00:13.656Z,1.75
2023-05-10T19:02:41.880Z,1.25
2023-05-10T19:05:10.667Z,1.75
2023-05-10T19:07:38.619Z,2.25
2023-05-10T19:10:09.710Z,1.50
2023-05-10T19:12:37.653Z,1.50
2023-05-10T19:15:07.855Z,1.50
2023-05-10T19:17:36.876Z,1.50
2023-05-10T19:20:06.812Z,2.25
2023-05-10T19:22:47.185Z,2.25
2023-05-10T19:25:29.226Z,1.50
2023-05-10T19:27:57.900Z,2.00
2023-05-10T19:30:26.304Z,1.50
2023-05-10T19:32:54.170Z,2.25
2023-05-10T19:35:22.291Z,1.50
2023-05-10T19:37:50.256Z,1.50
2023-05-10T19:40:18.611Z,2.50
2023-05-10T19:42:48.085Z,2.50
2023-05-10T19:45:16.620Z,2.25
2023-05-10T19:47:44.892Z,1.50
2023-05-10T19:50:13.904Z,2.50
2023-05-10T19:52:41.945Z,1.50
2023-05-10T19:55:14.158Z,2.00
2023-05-10T19:57:42.294Z,1.75
2023-05-10T20:02:50.586Z,2.00
2023-05-10T20:05:18.831Z,2.50
2023-05-10T20:07:46.910Z,2.00
2023-05-10T20:10:15.788Z,2.50
2023-05-10T20:12:49.612Z,1.50
2023-05-10T20:15:18.080Z,2.25
2023-05-10T20:17:46.408Z,1.75
2023-05-10T20:20:16.697Z,1.50
2023-05-10T20:22:44.806Z,2.50
2023-05-10T20:25:12.779Z,1.50
2023-05-10T20:27:40.693Z,1.75
2023-05-10T20:30:10.730Z,1.50
2023-05-10T20:32:38.738Z,1.75
2023-05-10T20:35:07.673Z,2.25
2023-05-10T20:37:37.848Z,2.50
2023-05-10T20:40:06.991Z,1.50
2023-05-10T20:42:34.973Z,2.25
2023-05-10T20:45:03.355Z,2.50
2023-05-10T20:47:31.260Z,1.50
2023-05-10T20:49:59.236Z,2.50
2023-05-10T20:52:27.266Z,2.50
2023-05-10T20:54:56.643Z,1.75
2023-05-10T20:57:24.818Z,2.50
2023-05-10T20:59:53.046Z,2.25
2023-05-10T21:02:20.979Z,2.50
2023-05-10T21:04:48.986Z,2.50
2023-05-10T21:07:17.459Z,2.75
2023-05-10T21:09:46.810Z,2.50
2023-05-10T21:12:16.077Z,2.50
2023-05-10T21:14:46.626Z,2.50
2023-05-10T21:17:14.586Z,3.25
2023-05-10T21:19:42.859Z,2.50
2023-05-10T21:22:10.846Z,1.75
2023-05-10T21:24:39.190Z,3.50
2023-05-10T21:27:07.516Z,2.50
2023-05-10T21:29:37.645Z,3.00
2023-05-10T21:32:05.953Z,2.50
2023-05-10T21:34:33.943Z,3.25
2023-05-10T21:37:02.199Z,1.50
2023-05-10T21:39:30.489Z,2.75
2023-05-10T21:41:59.768Z,3.00
2023-05-10T21:44:27.680Z,1.75
2023-05-10T21:46:57.075Z,3.00
2023-05-10T21:49:25.501Z,2.50
2023-05-10T21:51:53.451Z,3.50
2023-05-10T21:54:21.482Z,3.50
2023-05-10T21:56:50.006Z,2.25
2023-05-10T21:59:19.094Z,2.50
2023-05-10T22:01:47.166Z,2.50
2023-05-10T22:04:16.565Z,2.50
2023-05-10T22:06:45.017Z,1.50
2023-05-10T22:09:13.391Z,1.75
2023-05-10T22:11:41.269Z,2.50
2023-05-10T22:14:09.222Z,2.50
2023-05-10T22:16:37.149Z,2.50
2023-05-10T22:19:06.612Z,2.50
2023-05-10T22:21:36.092Z,3.50
2023-05-10T22:24:05.333Z,2.50
2023-05-10T22:26:33.368Z,2.50
2023-05-10T22:29:01.770Z,3.25
2023-05-10T22:31:29.710Z,3.25
2023-05-10T22:33:57.663Z,2.50
2023-05-10T22:36:25.668Z,2.50
2023-05-10T22:38:55.506Z,2.50
2023-05-10T22:41:23.763Z,2.50
2023-05-10T22:43:51.749Z,3.25
2023-05-10T22:46:19.995Z,3.00
2023-05-10T22:48:49.006Z,3.50
2023-05-10T22:51:17.021Z,3.00
2023-05-10T22:53:44.911Z,2.50
2023-05-10T22:56:14.233Z,2.75
2023-05-10T22:58:42.546Z,2.50
2023-05-10T23:01:17.198Z,2.00
2023-05-10T23:03:45.245Z,2.50
2023-05-10T23:06:13.141Z,2.50
2023-05-10T23:08:40.996Z,2.75
2023-05-10T23:11:09.223Z,3.00
2023-05-10T23:13:38.488Z,3.00
2023-05-10T23:16:07.728Z,2.50
2023-05-10T23:18:35.914Z,2.75
2023-05-10T23:21:04.296Z,2.50
2023-05-10T23:23:33.993Z,2.50
2023-05-10T23:26:02.012Z,2.50
2023-05-10T23:28:29.958Z,2.50
2023-05-10T23:30:59.665Z,3.50
2023-05-10T23:33:27.643Z,2.50
2023-05-10T23:35:55.721Z,2.50
2023-05-10T23:38:23.822Z,2.50
2023-05-10T23:40:51.763Z,3.25
2023-05-10T23:43:19.873Z,3.25
2023-05-10T23:45:54.839Z,3.50
2023-05-10T23:48:24.362Z,2.75
2023-05-10T23:50:52.587Z,2.50
2023-05-10T23:53:20.758Z,2.50
2023-05-10T23:55:48.796Z,2.50
2023-05-10T23:58:16.703Z,3.50
